Time;durP1;ratioP1;P1;durP2;ratioP2;P2;SDS_P1;SDS_P2;PMS_P1;PMS_P2;Temp;Humidity;BMP_temperature;BMP_pressure;BME280_temperature;BME280_humidity;BME280_pressure;Samples;Min_cycle;Max_cycle;Signal;HPM_P1;HPM_P2
2022/08/10 00:02:17;;;;;;;;;;;25.10;49.50;;;;;;5102207;28;19981;-89
2022/08/10 00:04:42;;;;;;;;;;;25.10;49.60;;;;;;5085253;28;19904;-89
2022/08/10 00:07:08;;;;;;;;;;;25.10;49.60;;;;;;5084781;28;20139;-89
2022/08/10 00:09:33;;;;;;;;;;;25.10;49.60;;;;;;5101366;28;19954;-89
2022/08/10 00:11:59;;;;;;;;;;;25.10;49.60;;;;;;5084487;28;19908;-89
2022/08/10 00:14:25;;;;;;;;;;;25.10;49.60;;;;;;5084149;28;19998;-89
2022/08/10 00:16:50;;;;;;;;;;;25.10;49.60;;;;;;5102404;28;19904;-89
2022/08/10 00:19:16;;;;;;;;;;;25.10;49.70;;;;;;5085003;28;20467;-89
2022/08/10 00:21:42;;;;;;;;;;;25.10;49.70;;;;;;5085152;28;19904;-89
2022/08/10 00:24:08;;;;;;;;;;;25.10;49.70;;;;;;5084829;28;20010;-89
2022/08/10 00:26:33;;;;;;;;;;;25.10;49.80;;;;;;5084483;28;19904;-89
2022/08/10 00:28:59;;;;;;;;;;;25.10;49.80;;;;;;5067758;28;19972;-89
2022/08/10 00:31:36;;;;;;;;;;;25.00;49.80;;;;;;5085285;28;19907;-89
2022/08/10 00:34:02;;;;;;;;;;;25.00;49.80;;;;;;5082557;28;19968;-89
2022/08/10 00:36:27;;;;;;;;;;;25.00;49.80;;;;;;5084457;28;19916;-89
2022/08/10 00:38:53;;;;;;;;;;;25.00;49.90;;;;;;5084624;28;19940;-89
2022/08/10 00:41:19;;;;;;;;;;;25.00;49.90;;;;;;5084765;28;19904;-89
2022/08/10 00:43:44;;;;;;;;;;;25.00;49.90;;;;;;5084881;28;19906;-89
2022/08/10 00:46:10;;;;;;;;;;;24.90;49.90;;;;;;5084558;28;19904;-89
2022/08/10 00:48:36;;;;;;;;;;;24.90;49.90;;;;;;5085049;28;19908;-89
2022/08/10 00:51:02;;;;;;;;;;;24.90;50.00;;;;;;5084689;28;19919;-89
2022/08/10 00:53:28;;;;;;;;;;;24.90;50.00;;;;;;5084811;28;20170;-89
2022/08/10 00:55:54;;;;;;;;;;;24.90;50.00;;;;;;5098994;28;19994;-89
2022/08/10 00:58:19;;;;;;;;;;;24.90;50.10;;;;;;5081759;28;19998;-89
2022/08/10 01:00:47;;;;;;;;;;;24.90;50.10;;;;;;5081475;28;19915;-89
2022/08/10 01:03:15;;;;;;;;;;;24.80;50.10;;;;;;5081929;28;19904;-89
2022/08/10 01:05:49;;;;;;;;;;;24.80;50.10;;;;;;5080814;28;19903;-89
2022/08/10 01:08:29;;;;;;;;;;;24.80;50.20;;;;;;5081757;28;19990;-89
2022/08/10 01:11:07;;;;;;;;;;;24.80;50.30;;;;;;5081054;28;19908;-90
2022/08/10 01:13:53;;;;;;;;;;;24.80;50.40;;;;;;5074796;22;19921;-8
2022/08/10 01:16:28;;;;;;;;;;;24.80;50.40;;;;;;5053642;28;20292;-8
2022/08/10 01:18:59;;;;;;;;;;;24.80;50.50;;;;;;5055363;28;19905;-8
2022/08/10 01:21:48;;;;;;;;;;;24.80;50.50;;;;;;5054822;28;19908;-8
2022/08/10 01:24:14;;;;;;;;;;;24.80;50.50;;;;;;5055133;28;19915;-7
2022/08/10 01:26:42;;;;;;;;;;;24.80;50.50;;;;;;5056076;28;19904;-8
2022/08/10 01:29:26;;;;;;;;;;;24.80;50.50;;;;;;5057025;28;19904;-8
2022/08/10 01:31:54;;;;;;;;;;;24.80;50.60;;;;;;5038841;28;19909;-8
2022/08/10 01:34:22;;;;;;;;;;;24.80;50.70;;;;;;5057366;28;19915;-7
2022/08/10 01:36:50;;;;;;;;;;;24.80;50.80;;;;;;5058120;28;19911;-8
2022/08/10 01:39:21;;;;;;;;;;;24.80;50.80;;;;;;5057766;28;19908;-7
2022/08/10 01:41:49;;;;;;;;;;;24.80;50.80;;;;;;5058091;28;19905;-8
2022/08/10 01:44:22;;;;;;;;;;;24.70;50.90;;;;;;5057553;28;20232;-8
2022/08/10 01:46:50;;;;;;;;;;;24.70;51.00;;;;;;5058088;28;19955;-7
2022/08/10 01:49:16;;;;;;;;;;;24.70;51.00;;;;;;5057787;28;19912;-8
2022/08/10 01:51:48;;;;;;;;;;;24.70;51.00;;;;;;5057156;28;19916;-8
2022/08/10 01:54:18;;;;;;;;;;;24.70;51.10;;;;;;5057362;28;19904;-8
2022/08/10 01:56:45;;;;;;;;;;;24.70;51.10;;;;;;5057997;28;19916;-8
2022/08/10 01:59:12;;;;;;;;;;;24.60;51.20;;;;;;5058047;28;19904;-7
2022/08/10 02:01:39;;;;;;;;;;;24.60;51.20;;;;;;5057817;28;20271;-7
2022/08/10 02:04:07;;;;;;;;;;;24.60;51.20;;;;;;5057461;28;19905;-7
2022/08/10 02:06:35;;;;;;;;;;;24.60;51.30;;;;;;5055640;28;19912;-8
2022/08/10 02:09:01;;;;;;;;;;;24.60;51.30;;;;;;5057809;28;19905;-8
2022/08/10 02:11:27;;;;;;;;;;;24.60;51.40;;;;;;5056761;28;19970;-8
2022/08/10 02:13:55;;;;;;;;;;;24.60;51.40;;;;;;5056538;28;20296;-8
2022/08/10 02:16:22;;;;;;;;;;;24.60;51.50;;;;;;5056344;28;19915;-8
2022/08/10 02:18:49;;;;;;;;;;;24.50;51.50;;;;;;5056984;28;20404;-8
2022/08/10 02:21:14;;;;;;;;;;;24.50;51.60;;;;;;5057375;28;19912;-8
2022/08/10 02:23:41;;;;;;;;;;;24.50;51.70;;;;;;5057655;28;19905;-8
2022/08/10 02:26:07;;;;;;;;;;;24.50;51.70;;;;;;5057636;28;19904;-8
2022/08/10 02:28:34;;;;;;;;;;;24.50;51.80;;;;;;5072622;28;19936;-8
2022/08/10 02:31:05;;;;;;;;;;;24.50;51.80;;;;;;5056312;28;20254;-8
2022/08/10 02:33:31;;;;;;;;;;;24.50;51.80;;;;;;5073332;28;19904;-8
2022/08/10 02:35:59;;;;;;;;;;;24.50;51.90;;;;;;5056335;28;19915;-8
2022/08/10 02:38:36;;;;;;;;;;;24.50;51.90;;;;;;5055657;28;19905;-8
2022/08/10 02:41:07;;;;;;;;;;;24.50;52.00;;;;;;5057276;28;19911;-8
2022/08/10 02:43:36;;;;;;;;;;;24.50;52.10;;;;;;5056856;28;20238;-8
2022/08/10 02:46:06;;;;;;;;;;;24.40;52.10;;;;;;5056685;28;19904;-8
2022/08/10 02:48:58;;;;;;;;;;;24.40;52.10;;;;;;5072905;28;20233;-8
2022/08/10 02:51:28;;;;;;;;;;;24.40;52.20;;;;;;5053128;28;19916;-8
2022/08/10 02:54:02;;;;;;;;;;;24.40;52.20;;;;;;5056443;28;20249;-8
2022/08/10 02:56:33;;;;;;;;;;;24.40;52.30;;;;;;5056835;28;19930;-8
2022/08/10 02:59:05;;;;;;;;;;;24.40;52.40;;;;;;5056349;28;19958;-8
2022/08/10 03:01:33;;;;;;;;;;;24.30;52.70;;;;;;5057256;28;20202;-8
2022/08/10 03:04:14;;;;;;;;;;;24.30;52.40;;;;;;5055656;28;19905;-8
2022/08/10 03:06:42;;;;;;;;;;;24.30;52.40;;;;;;5072122;28;20182;-8
2022/08/10 03:09:09;;;;;;;;;;;24.30;52.50;;;;;;5056166;28;20270;-8
2022/08/10 03:11:36;;;;;;;;;;;24.30;52.60;;;;;;5056573;28;19955;-8
2022/08/10 03:14:03;;;;;;;;;;;24.20;52.60;;;;;;5056228;28;19912;-8
2022/08/10 03:16:29;;;;;;;;;;;24.20;52.70;;;;;;5056461;28;20290;-8
2022/08/10 03:18:58;;;;;;;;;;;24.20;52.80;;;;;;5055664;28;19973;-8
2022/08/10 03:21:24;;;;;;;;;;;24.20;52.70;;;;;;5054597;28;19912;-8
2022/08/10 03:23:50;;;;;;;;;;;24.20;52.90;;;;;;5055971;28;19904;-8
2022/08/10 03:26:16;;;;;;;;;;;24.20;52.90;;;;;;5056058;28;19962;-8
2022/08/10 03:28:42;;;;;;;;;;;24.10;53.00;;;;;;5055078;28;20339;-8
2022/08/10 03:31:08;;;;;;;;;;;24.20;53.10;;;;;;5054849;28;19908;-8
2022/08/10 03:33:35;;;;;;;;;;;24.10;53.00;;;;;;5055965;28;19905;-8
2022/08/10 03:36:01;;;;;;;;;;;24.10;53.00;;;;;;5055672;28;19970;-8
2022/08/10 03:38:27;;;;;;;;;;;24.00;53.00;;;;;;5070754;28;19912;-8
2022/08/10 03:40:54;;;;;;;;;;;24.00;53.00;;;;;;5055225;28;19913;-8
2022/08/10 03:43:20;;;;;;;;;;;24.00;53.10;;;;;;5055583;28;19912;-8
2022/08/10 03:45:48;;;;;;;;;;;24.00;53.10;;;;;;5055465;28;20189;-8
2022/08/10 03:48:17;;;;;;;;;;;23.90;53.20;;;;;;5070249;28;19967;-8
2022/08/10 03:50:43;;;;;;;;;;;23.90;53.10;;;;;;5054831;28;19908;-8
2022/08/10 03:53:08;;;;;;;;;;;23.90;53.20;;;;;;5055768;28;19911;-8
2022/08/10 03:55:34;;;;;;;;;;;23.90;53.20;;;;;;5053388;28;20262;-8
2022/08/10 03:58:00;;;;;;;;;;;23.90;53.20;;;;;;5054263;28;19911;-8
2022/08/10 04:00:27;;;;;;;;;;;23.90;53.20;;;;;;5055578;28;19915;-8
2022/08/10 04:02:54;;;;;;;;;;;23.80;53.20;;;;;;5070331;28;19912;-8
2022/08/10 04:05:20;;;;;;;;;;;23.80;53.20;;;;;;5055238;28;20277;-8
2022/08/10 04:07:46;;;;;;;;;;;23.80;53.20;;;;;;5054488;28;19978;-8
2022/08/10 04:10:13;;;;;;;;;;;23.80;53.40;;;;;;5055134;28;20266;-8
2022/08/10 04:12:38;;;;;;;;;;;23.80;53.30;;;;;;5068257;28;19913;-8
2022/08/10 04:15:04;;;;;;;;;;;23.80;53.40;;;;;;5055830;28;20159;-8
2022/08/10 04:17:30;;;;;;;;;;;23.80;53.40;;;;;;5054539;28;19915;-8
2022/08/10 04:19:56;;;;;;;;;;;23.70;53.40;;;;;;5055180;28;19920;-8
2022/08/10 04:22:24;;;;;;;;;;;23.70;53.50;;;;;;5053975;28;19905;-9
2022/08/10 04:24:52;;;;;;;;;;;23.70;53.50;;;;;;5054446;28;19905;-8
2022/08/10 04:27:18;;;;;;;;;;;23.60;53.70;;;;;;5053733;28;19905;-8
2022/08/10 04:29:44;;;;;;;;;;;23.60;53.60;;;;;;5053401;28;20254;-9
2022/08/10 04:32:10;;;;;;;;;;;23.60;53.50;;;;;;5058211;28;19915;-8
2022/08/10 04:34:38;;;;;;;;;;;23.60;53.50;;;;;;5057820;28;19940;-8
2022/08/10 04:37:05;;;;;;;;;;;23.60;53.90;;;;;;5057887;28;19931;-8
2022/08/10 04:39:30;;;;;;;;;;;23.50;53.80;;;;;;5058038;28;19905;-8
2022/08/10 04:41:56;;;;;;;;;;;23.50;53.70;;;;;;5072398;28;19904;-9
2022/08/10 04:44:22;;;;;;;;;;;23.50;53.70;;;;;;5056553;28;19905;-8
2022/08/10 04:46:48;;;;;;;;;;;23.60;53.70;;;;;;5056911;28;19913;-9
2022/08/10 04:49:14;;;;;;;;;;;23.60;53.60;;;;;;5058396;28;19916;-9
2022/08/10 04:51:39;;;;;;;;;;;23.60;53.60;;;;;;5055957;28;19919;-8
2022/08/10 04:54:05;;;;;;;;;;;23.60;53.50;;;;;;5072891;28;19908;-8
2022/08/10 04:56:31;;;;;;;;;;;23.60;53.60;;;;;;5055570;28;20178;-8
2022/08/10 04:58:56;;;;;;;;;;;23.60;53.50;;;;;;5056731;28;19908;-8
2022/08/10 05:01:22;;;;;;;;;;;23.70;53.60;;;;;;5090087;23;19931;-9
2022/08/10 05:03:47;;;;;;;;;;;23.70;53.80;;;;;;5115875;28;19914;-9
2022/08/10 05:06:13;;;;;;;;;;;23.70;54.10;;;;;;5116524;28;19903;-8
2022/08/10 05:08:39;;;;;;;;;;;23.70;53.60;;;;;;5116207;28;19968;-9
2022/08/10 05:11:04;;;;;;;;;;;23.70;53.80;;;;;;5115087;28;20085;-9
2022/08/10 05:13:30;;;;;;;;;;;23.80;53.70;;;;;;5115591;28;20228;-9
2022/08/10 05:15:55;;;;;;;;;;;23.80;53.60;;;;;;5115510;28;20067;-8
2022/08/10 05:18:21;;;;;;;;;;;23.90;53.50;;;;;;5115408;28;19904;-9
2022/08/10 05:20:47;;;;;;;;;;;23.90;53.40;;;;;;5113706;28;19903;-9
2022/08/10 05:23:12;;;;;;;;;;;24.00;53.30;;;;;;5114719;28;19977;-8
2022/08/10 05:25:38;;;;;;;;;;;24.10;53.20;;;;;;5113677;28;19956;-8
2022/08/10 05:28:04;;;;;;;;;;;24.10;52.90;;;;;;5111870;28;20014;-9
2022/08/10 05:30:29;;;;;;;;;;;24.20;52.80;;;;;;5094315;28;19904;-9
2022/08/10 05:32:55;;;;;;;;;;;24.30;52.80;;;;;;5093481;28;19941;-9
2022/08/10 05:35:21;;;;;;;;;;;24.30;52.80;;;;;;5095393;28;19914;-9
2022/08/10 05:37:48;;;;;;;;;;;24.40;52.30;;;;;;5111871;28;20010;-8
2022/08/10 05:40:13;;;;;;;;;;;24.50;52.10;;;;;;5095043;28;19904;-8
2022/08/10 05:42:39;;;;;;;;;;;24.60;51.80;;;;;;5095442;28;20250;-8
2022/08/10 05:45:08;;;;;;;;;;;24.70;51.70;;;;;;5094804;28;19904;-9
2022/08/10 05:47:34;;;;;;;;;;;24.80;51.50;;;;;;5094610;28;19903;-9
2022/08/10 05:49:59;;;;;;;;;;;24.90;51.30;;;;;;5112799;28;19990;-9
2022/08/10 05:52:25;;;;;;;;;;;25.10;51.10;;;;;;5112288;28;19914;-9
2022/08/10 05:54:51;;;;;;;;;;;25.20;50.90;;;;;;5111431;28;19914;-9
2022/08/10 05:57:18;;;;;;;;;;;25.30;50.70;;;;;;5111775;28;20115;-9
2022/08/10 05:59:46;;;;;;;;;;;25.40;50.60;;;;;;5111702;28;19912;-9
2022/08/10 06:02:21;;;;;;;;;;;25.50;50.40;;;;;;5111893;28;19921;-9
2022/08/10 06:04:49;;;;;;;;;;;25.70;50.30;;;;;;5094274;28;20269;-8
2022/08/10 06:07:18;;;;;;;;;;;25.80;50.20;;;;;;5112298;28;20349;-8
2022/08/10 06:09:44;;;;;;;;;;;25.90;50.10;;;;;;5094825;28;19911;-9
2022/08/10 06:12:10;;;;;;;;;;;26.00;50.00;;;;;;5111177;28;19908;-9
2022/08/10 06:17:22;;;;;;;;;;;26.20;49.60;;;;;;5112415;28;19969;-9
2022/08/10 06:19:48;;;;;;;;;;;26.30;49.50;;;;;;5112215;28;19907;-8
2022/08/10 06:22:15;;;;;;;;;;;26.40;49.40;;;;;;5112996;28;19904;-8
2022/08/10 06:24:41;;;;;;;;;;;26.40;49.30;;;;;;5112774;28;19964;-9
2022/08/10 06:27:08;;;;;;;;;;;26.50;49.20;;;;;;5112882;28;19914;-9
2022/08/10 06:29:36;;;;;;;;;;;26.70;49.10;;;;;;5111515;28;20319;-8
2022/08/10 06:32:03;;;;;;;;;;;26.80;49.40;;;;;;5111007;28;19996;-8
2022/08/10 06:34:31;;;;;;;;;;;26.90;49.20;;;;;;5112128;28;19911;-8
2022/08/10 06:36:58;;;;;;;;;;;27.10;49.00;;;;;;5111621;28;19908;-9
2022/08/10 06:39:25;;;;;;;;;;;27.20;48.70;;;;;;5112954;28;20356;-8
2022/08/10 06:41:52;;;;;;;;;;;27.40;48.60;;;;;;5112348;28;19904;-9
2022/08/10 06:44:31;;;;;;;;;;;27.50;48.50;;;;;;5093239;28;19904;-9
2022/08/10 06:46:58;;;;;;;;;;;27.70;48.40;;;;;;5112166;28;20356;-8
2022/08/10 06:49:24;;;;;;;;;;;28.10;48.10;;;;;;5094127;28;20295;-8
2022/08/10 06:51:52;;;;;;;;;;;28.70;47.60;;;;;;5112082;28;19908;-9
2022/08/10 06:54:20;;;;;;;;;;;29.30;47.00;;;;;;5094064;28;19904;-9
2022/08/10 06:56:50;;;;;;;;;;;29.90;46.30;;;;;;5111525;28;19914;-9
2022/08/10 06:59:21;;;;;;;;;;;30.40;45.70;;;;;;5116893;28;19907;-8
2022/08/10 07:01:49;;;;;;;;;;;30.80;45.30;;;;;;5099308;28;20473;-8
2022/08/10 07:04:20;;;;;;;;;;;31.20;44.90;;;;;;5092922;28;19910;-8
2022/08/10 07:06:47;;;;;;;;;;;31.50;44.50;;;;;;5092944;28;19935;-8
2022/08/10 07:09:14;;;;;;;;;;;31.70;44.30;;;;;;5094289;28;19938;-8
2022/08/10 07:11:40;;;;;;;;;;;31.90;44.00;;;;;;5111306;28;19907;-8
2022/08/10 07:14:06;;;;;;;;;;;32.20;43.80;;;;;;5111045;28;19933;-8
2022/08/10 07:16:32;;;;;;;;;;;32.50;43.50;;;;;;5093777;28;19904;-8
2022/08/10 07:18:59;;;;;;;;;;;32.70;43.10;;;;;;5111878;28;20453;-8
2022/08/10 07:21:27;;;;;;;;;;;33.00;42.80;;;;;;5111540;28;19904;-8
2022/08/10 07:23:53;;;;;;;;;;;33.40;42.50;;;;;;5111523;28;20110;-8
2022/08/10 07:26:20;;;;;;;;;;;33.70;42.20;;;;;;5111510;28;20319;-8
2022/08/10 07:28:47;;;;;;;;;;;34.00;41.90;;;;;;5092644;28;20010;-8
2022/08/10 07:31:15;;;;;;;;;;;34.20;41.70;;;;;;5110873;28;20298;-8
2022/08/10 07:33:42;;;;;;;;;;;34.40;41.50;;;;;;5110911;28;20010;-8
2022/08/10 07:36:09;;;;;;;;;;;34.50;41.40;;;;;;5092604;28;19907;-8
2022/08/10 07:38:34;;;;;;;;;;;34.60;41.30;;;;;;5110957;28;19907;-9
2022/08/10 07:41:01;;;;;;;;;;;34.60;41.20;;;;;;5092541;28;20238;-8
2022/08/10 07:43:30;;;;;;;;;;;34.50;41.20;;;;;;5111658;28;20338;-9
2022/08/10 07:45:57;;;;;;;;;;;34.30;41.30;;;;;;5109901;28;19990;-9
2022/08/10 07:48:25;;;;;;;;;;;34.30;41.30;;;;;;5092525;28;20189;-8
2022/08/10 07:50:53;;;;;;;;;;;34.40;41.20;;;;;;5092888;28;19915;-8
2022/08/10 07:53:21;;;;;;;;;;;34.60;41.20;;;;;;5110374;28;19915;-8
2022/08/10 07:55:48;;;;;;;;;;;34.90;41.00;;;;;;5110055;28;19961;-8
2022/08/10 07:58:16;;;;;;;;;;;35.20;40.70;;;;;;5092954;28;19949;-8
2022/08/10 08:00:42;;;;;;;;;;;35.50;40.60;;;;;;5110639;28;20257;-9
2022/08/10 08:03:09;;;;;;;;;;;35.70;40.40;;;;;;5091530;28;19904;-9
2022/08/10 08:05:36;;;;;;;;;;;35.80;40.20;;;;;;5096864;28;20254;-8
2022/08/10 08:08:02;;;;;;;;;;;36.00;40.00;;;;;;5096507;28;20008;-9
2022/08/10 08:10:28;;;;;;;;;;;36.10;40.00;;;;;;5114061;28;19929;-8
2022/08/10 08:12:56;;;;;;;;;;;36.10;40.20;;;;;;5112997;28;19913;-9
2022/08/10 08:15:23;;;;;;;;;;;36.30;39.90;;;;;;5114318;28;19904;-9
2022/08/10 08:17:50;;;;;;;;;;;36.40;39.80;;;;;;5114810;28;19903;-8
2022/08/10 08:20:16;;;;;;;;;;;36.60;39.70;;;;;;5095476;28;20011;-9
2022/08/10 08:22:43;;;;;;;;;;;36.70;39.60;;;;;;5114813;28;20154;-8
2022/08/10 08:25:10;;;;;;;;;;;36.80;39.40;;;;;;5095414;28;19903;-10
2022/08/10 08:27:36;;;;;;;;;;;37.00;39.30;;;;;;5095755;28;19934;-8
2022/08/10 08:30:02;;;;;;;;;;;37.20;39.10;;;;;;5114251;28;19914;-9
2022/08/10 08:32:30;;;;;;;;;;;37.20;39.20;;;;;;5113348;28;19938;-8
2022/08/10 08:34:58;;;;;;;;;;;37.30;39.00;;;;;;5113846;28;19923;-9
2022/08/10 08:37:25;;;;;;;;;;;37.40;39.00;;;;;;5114590;28;19972;-8
2022/08/10 08:39:50;;;;;;;;;;;37.50;38.90;;;;;;5094841;28;19915;-8
2022/08/10 08:42:35;;;;;;;;;;;37.50;39.00;;;;;;5112610;27;19904;-9
2022/08/10 08:45:09;;;;;;;;;;;37.60;38.90;;;;;;5112824;28;19996;-9
2022/08/10 08:47:39;;;;;;;;;;;37.60;38.90;;;;;;5112904;28;19915;-9
2022/08/10 08:50:24;;;;;;;;;;;37.80;38.80;;;;;;5094794;28;19956;-8
2022/08/10 08:52:55;;;;;;;;;;;37.90;38.60;;;;;;5094947;28;20272;-9
2022/08/10 08:55:24;;;;;;;;;;;38.10;38.50;;;;;;5113319;28;19994;-9
2022/08/10 08:58:05;;;;;;;;;;;38.10;38.50;;;;;;5113668;28;20200;-8
2022/08/10 09:00:30;;;;;;;;;;;38.20;38.40;;;;;;5112270;28;19915;-8
2022/08/10 09:02:56;;;;;;;;;;;38.20;38.40;;;;;;5112689;28;19907;-8
2022/08/10 09:05:33;;;;;;;;;;;38.20;38.40;;;;;;5113127;28;19903;-8
2022/08/10 09:08:04;;;;;;;;;;;38.30;38.30;;;;;;5112191;28;19972;-8
2022/08/10 09:10:35;;;;;;;;;;;38.40;38.20;;;;;;5112636;28;20275;-8
2022/08/10 09:13:12;;;;;;;;;;;38.50;38.20;;;;;;5111746;28;19907;-8
2022/08/10 09:15:50;;;;;;;;;;;38.50;38.20;;;;;;5093409;28;20331;-9
2022/08/10 09:18:22;;;;;;;;;;;38.40;38.20;;;;;;5094318;28;19914;-8
2022/08/10 09:20:57;;;;;;;;;;;38.40;38.20;;;;;;5114076;28;19915;-8
2022/08/10 09:23:41;;;;;;;;;;;38.30;38.20;;;;;;5112108;28;20172;-9
2022/08/10 09:26:18;;;;;;;;;;;38.40;38.20;;;;;;5112977;28;19904;-9
2022/08/10 09:28:44;;;;;;;;;;;38.40;38.20;;;;;;5112349;28;20298;-8
2022/08/10 09:31:10;;;;;;;;;;;38.40;38.40;;;;;;5113563;28;19955;-9
2022/08/10 09:33:38;;;;;;;;;;;38.40;38.30;;;;;;5094509;28;20209;-8
2022/08/10 09:36:16;;;;;;;;;;;38.40;38.20;;;;;;5113280;28;19907;-8
2022/08/10 09:38:53;;;;;;;;;;;38.50;38.10;;;;;;5112196;28;19904;-9
2022/08/10 09:41:21;;;;;;;;;;;38.40;38.20;;;;;;5093821;28;20079;-9
2022/08/10 09:43:53;;;;;;;;;;;38.50;38.10;;;;;;5112467;28;19903;-9
2022/08/10 09:46:21;;;;;;;;;;;38.50;38.10;;;;;;5110829;28;19904;-8
2022/08/10 09:48:53;;;;;;;;;;;38.40;37.80;;;;;;5108083;28;19985;-8
2022/08/10 09:51:25;;;;;;;;;;;38.20;37.60;;;;;;5091579;28;19951;-8
2022/08/10 09:53:50;;;;;;;;;;;37.90;38.00;;;;;;5108126;28;19915;-8
2022/08/10 09:56:28;;;;;;;;;;;37.40;37.60;;;;;;5109280;28;20189;-8
2022/08/10 09:59:10;;;;;;;;;;;37.20;38.50;;;;;;5089902;28;19943;-8
2022/08/10 10:01:54;;;;;;;;;;;36.60;38.80;;;;;;5098761;28;19920;-8
2022/08/10 10:04:41;;;;;;;;;;;35.80;38.70;;;;;;5111062;28;19908;-9
2022/08/10 10:07:09;;;;;;;;;;;35.10;39.20;;;;;;5112604;28;19916;-9
2022/08/10 10:09:37;;;;;;;;;;;34.60;39.50;;;;;;5117083;28;19903;-8
2022/08/10 10:12:06;;;;;;;;;;;34.20;39.60;;;;;;5113227;28;20266;-9
2022/08/10 10:15:19;;;;;;;;;;;33.90;39.90;;;;;;5108479;28;20025;-9
2022/08/10 10:17:29;;;;;;;;;;;33.50;40.40;;;;;;5097472;28;19911;-9
2022/08/10 10:20:04;;;;;;;;;;;33.30;40.20;;;;;;5110525;28;19904;-9
2022/08/10 10:22:51;;;;;;;;;;;33.20;40.70;;;;;;5111395;28;20177;-9
2022/08/10 10:25:19;;;;;;;;;;;33.00;40.90;;;;;;5113069;28;19903;-9
2022/08/10 10:28:04;;;;;;;;;;;32.80;40.50;;;;;;5116284;28;19904;-9
2022/08/10 10:30:38;;;;;;;;;;;32.70;41.00;;;;;;5116534;28;19915;-9
2022/08/10 10:33:23;;;;;;;;;;;32.70;41.40;;;;;;5094693;28;19919;-9
2022/08/10 10:35:54;;;;;;;;;;;32.70;41.60;;;;;;5071039;28;20308;-9
2022/08/10 10:38:23;;;;;;;;;;;32.70;41.70;;;;;;5094240;28;19990;-9
2022/08/10 10:41:00;;;;;;;;;;;32.60;41.60;;;;;;5096238;28;20287;-9
2022/08/10 10:43:46;;;;;;;;;;;32.60;41.00;;;;;;5095699;28;19904;-9
2022/08/10 10:46:18;;;;;;;;;;;32.60;41.90;;;;;;5077925;28;19914;-9
2022/08/10 10:48:49;;;;;;;;;;;32.60;41.90;;;;;;5111810;28;19914;-9
2022/08/10 10:51:24;;;;;;;;;;;32.60;41.30;;;;;;5115053;28;19907;-9
2022/08/10 10:53:59;;;;;;;;;;;32.60;42.00;;;;;;5116180;28;19990;-9
2022/08/10 10:56:43;;;;;;;;;;;32.60;42.00;;;;;;5115849;28;19903;-9
2022/08/10 10:59:16;;;;;;;;;;;32.60;42.00;;;;;;5115565;28;19972;-9
2022/08/10 11:01:54;;;;;;;;;;;32.60;42.10;;;;;;5115693;28;19912;-9
2022/08/10 11:04:23;;;;;;;;;;;32.60;42.20;;;;;;5115504;28;20024;-9
2022/08/10 11:07:09;;;;;;;;;;;32.50;42.10;;;;;;5114601;28;20418;-8
2022/08/10 11:09:34;;;;;;;;;;;32.50;42.20;;;;;;5109093;28;19934;-9
2022/08/10 11:12:07;;;;;;;;;;;32.50;42.10;;;;;;5107887;28;20181;-9
2022/08/10 11:14:36;;;;;;;;;;;32.40;42.40;;;;;;5109996;28;20008;-8
2022/08/10 11:17:08;;;;;;;;;;;32.30;42.30;;;;;;5089346;28;19904;-9
2022/08/10 11:19:46;;;;;;;;;;;32.30;42.40;;;;;;5109360;28;19904;-8
2022/08/10 11:22:12;;;;;;;;;;;32.30;42.50;;;;;;5089563;28;19911;-8
2022/08/10 11:25:12;;;;;;;;;;;32.20;42.60;;;;;;5108438;28;20053;-9
2022/08/10 11:27:43;;;;;;;;;;;32.10;42.50;;;;;;5004575;28;20274;-9
2022/08/10 11:30:14;;;;;;;;;;;32.10;42.30;;;;;;5089363;28;19931;-9
2022/08/10 11:32:46;;;;;;;;;;;32.10;42.60;;;;;;5088446;28;20002;-8
2022/08/10 11:35:25;;;;;;;;;;;32.00;42.60;;;;;;5107581;28;19910;-9
2022/08/10 11:37:51;;;;;;;;;;;32.00;42.70;;;;;;5108417;28;19943;-8
2022/08/10 11:40:33;;;;;;;;;;;31.80;40.40;;;;;;5107785;28;20221;-9
2022/08/10 11:42:58;;;;;;;;;;;31.70;42.00;;;;;;5103791;28;19904;-9
2022/08/10 11:45:30;;;;;;;;;;;31.70;42.20;;;;;;5109842;28;19904;-9
2022/08/10 11:48:00;;;;;;;;;;;31.50;42.60;;;;;;5109371;28;19903;-9
2022/08/10 11:50:33;;;;;;;;;;;31.50;42.60;;;;;;5109870;28;19904;-9
2022/08/10 11:53:08;;;;;;;;;;;31.50;42.80;;;;;;5109005;28;19915;-9
2022/08/10 11:55:34;;;;;;;;;;;31.50;42.70;;;;;;5109748;28;19911;-10
2022/08/10 12:00:58;;;;;;;;;;;31.50;42.80;;;;;;5109142;28;19915;-9
2022/08/10 12:03:24;;;;;;;;;;;31.40;42.40;;;;;;5090536;28;19907;-9
2022/08/10 12:05:50;;;;;;;;;;;31.40;42.00;;;;;;5109606;28;20230;-9
2022/08/10 12:08:18;;;;;;;;;;;31.30;39.70;;;;;;5109285;28;19911;-9
2022/08/10 12:10:44;;;;;;;;;;;31.30;41.90;;;;;;5109631;28;19920;-9
2022/08/10 12:13:21;;;;;;;;;;;31.30;41.50;;;;;;5108725;28;19915;-9
2022/08/10 12:16:01;;;;;;;;;;;31.20;41.80;;;;;;5108658;28;20332;-9
2022/08/10 12:18:45;;;;;;;;;;;31.20;41.20;;;;;;5108424;28;20288;-9
2022/08/10 12:21:21;;;;;;;;;;;31.20;41.80;;;;;;5112316;28;19943;-9
2022/08/10 12:23:54;;;;;;;;;;;31.20;41.90;;;;;;5115145;28;19968;-10
2022/08/10 12:26:35;;;;;;;;;;;31.10;40.60;;;;;;5114779;28;19918;-9
2022/08/10 12:29:07;;;;;;;;;;;31.10;40.00;;;;;;5115749;28;20196;-9
2022/08/10 12:31:40;;;;;;;;;;;31.10;40.30;;;;;;5097307;28;20331;-9
2022/08/10 12:34:09;;;;;;;;;;;31.10;42.20;;;;;;5115076;28;20152;-9
2022/08/10 12:36:40;;;;;;;;;;;31.00;40.90;;;;;;5115796;28;19957;-9
2022/08/10 12:39:26;;;;;;;;;;;31.00;42.00;;;;;;5115827;28;20402;-9
2022/08/10 12:42:12;;;;;;;;;;;30.90;42.40;;;;;;5114648;28;19904;-9
2022/08/10 12:44:52;;;;;;;;;;;30.90;42.30;;;;;;5114495;28;20410;-10
2022/08/10 12:47:30;;;;;;;;;;;30.90;42.60;;;;;;5114737;28;19915;-9
2022/08/10 12:50:05;;;;;;;;;;;30.80;42.50;;;;;;5096805;28;20002;-9
2022/08/10 12:52:38;;;;;;;;;;;30.80;42.70;;;;;;5117793;28;20245;-9
2022/08/10 12:55:06;;;;;;;;;;;30.80;42.70;;;;;;5118851;28;19933;-9
2022/08/10 12:57:34;;;;;;;;;;;30.70;42.70;;;;;;5100022;28;19903;-9
2022/08/10 13:00:00;;;;;;;;;;;30.70;42.80;;;;;;5118445;28;19899;-9
2022/08/10 13:02:28;;;;;;;;;;;30.70;42.90;;;;;;5118686;28;19962;-9
2022/08/10 13:04:55;;;;;;;;;;;30.70;42.70;;;;;;5101063;28;19904;-9
2022/08/10 13:07:25;;;;;;;;;;;30.60;42.90;;;;;;5119147;28;20277;-9
2022/08/10 13:09:51;;;;;;;;;;;30.50;42.30;;;;;;5096006;28;20331;-9
2022/08/10 13:12:18;;;;;;;;;;;30.50;42.80;;;;;;5118080;28;20269;-9
2022/08/10 13:14:44;;;;;;;;;;;30.40;42.90;;;;;;5118281;28;19907;-9
2022/08/10 13:17:12;;;;;;;;;;;30.40;42.70;;;;;;5118421;28;19915;-9
2022/08/10 13:19:42;;;;;;;;;;;30.40;42.70;;;;;;5100366;28;19907;-9
2022/08/10 13:22:08;;;;;;;;;;;30.40;42.80;;;;;;5117384;28;19968;-9
2022/08/10 13:24:36;;;;;;;;;;;30.40;42.30;;;;;;5118030;28;19904;-9
2022/08/10 13:27:07;;;;;;;;;;;30.40;42.30;;;;;;5117796;28;20008;-9
2022/08/10 13:29:40;;;;;;;;;;;30.40;41.80;;;;;;5117774;28;19903;-10
2022/08/10 13:32:08;;;;;;;;;;;30.30;42.00;;;;;;5117513;28;19908;-9
2022/08/10 13:34:35;;;;;;;;;;;30.30;42.50;;;;;;5100702;28;20180;-9
2022/08/10 13:37:07;;;;;;;;;;;30.30;42.70;;;;;;5117472;28;19911;-9
2022/08/10 13:39:38;;;;;;;;;;;30.30;42.90;;;;;;5099845;28;20002;-9
2022/08/10 13:42:06;;;;;;;;;;;30.30;42.90;;;;;;5099247;28;19982;-9
2022/08/10 13:44:31;;;;;;;;;;;30.30;42.80;;;;;;5117742;28;19904;-9
2022/08/10 13:46:57;;;;;;;;;;;30.30;42.70;;;;;;5117688;28;19904;-9
2022/08/10 13:49:24;;;;;;;;;;;30.30;41.70;;;;;;5100421;28;19943;-9
2022/08/10 13:51:50;;;;;;;;;;;30.30;42.70;;;;;;5118169;28;19950;-9
2022/08/10 13:54:17;;;;;;;;;;;30.20;42.00;;;;;;5116366;28;19915;-9
2022/08/10 13:56:43;;;;;;;;;;;30.20;41.60;;;;;;5117937;28;20023;-9
2022/08/10 13:59:09;;;;;;;;;;;30.20;41.20;;;;;;5118306;28;20407;-10
2022/08/10 14:01:36;;;;;;;;;;;30.20;41.90;;;;;;5117661;28;19922;-9
2022/08/10 14:04:04;;;;;;;;;;;30.20;41.40;;;;;;5117430;28;20485;-9
2022/08/10 14:06:32;;;;;;;;;;;30.20;42.40;;;;;;5100185;28;19938;-9
2022/08/10 14:09:03;;;;;;;;;;;30.10;42.50;;;;;;5117733;28;19914;-9
2022/08/10 14:11:30;;;;;;;;;;;30.10;42.50;;;;;;5117104;28;20315;-9
2022/08/10 14:14:12;;;;;;;;;;;30.10;42.50;;;;;;5117264;28;19968;-9
2022/08/10 14:16:42;;;;;;;;;;;30.10;42.60;;;;;;5103309;28;19904;-10
2022/08/10 14:19:13;;;;;;;;;;;30.10;41.90;;;;;;5111191;28;19907;-9
2022/08/10 14:21:39;;;;;;;;;;;30.10;41.00;;;;;;5117511;28;19908;-9
2022/08/10 14:24:05;;;;;;;;;;;30.10;41.10;;;;;;5099023;28;19903;-9
2022/08/10 14:26:31;;;;;;;;;;;30.10;41.30;;;;;;5101660;28;19904;-9
2022/08/10 14:29:05;;;;;;;;;;;30.10;41.80;;;;;;5097312;28;19904;-9
2022/08/10 14:31:32;;;;;;;;;;;30.10;42.00;;;;;;5096796;28;19916;-10
2022/08/10 14:33:59;;;;;;;;;;;30.00;41.00;;;;;;5107058;28;19918;-9
2022/08/10 14:36:27;;;;;;;;;;;30.10;42.30;;;;;;5116832;28;19903;-9
2022/08/10 14:39:00;;;;;;;;;;;30.10;42.50;;;;;;5105559;27;19904;-10
2022/08/10 14:41:30;;;;;;;;;;;30.00;42.20;;;;;;5095844;28;19908;-9
2022/08/10 14:44:02;;;;;;;;;;;30.00;42.30;;;;;;5096340;28;19943;-9
2022/08/10 14:46:28;;;;;;;;;;;30.00;42.30;;;;;;5078852;28;19911;-9
2022/08/10 14:48:56;;;;;;;;;;;30.00;42.30;;;;;;5096235;28;19904;-9